Time;durP1;ratioP1;P1;durP2;ratioP2;P2;SDS_P1;SDS_P2;PMS_P1;PMS_P2;Temp;Humidity;BMP_temperature;BMP_pressure;BME280_temperature;BME280_humidity;BME280_pressure;Samples;Min_cycle;Max_cycle;Signal;HPM_P1;HPM_P2
2024/01/26 00:01:49;;;;;;;105.20;32.17;;;8.30;99.90;;;;;;5092744;28;20052;-84
2024/01/26 00:04:15;;;;;;;115.53;30.38;;;8.30;99.90;;;;;;5092301;28;20045;-85
2024/01/26 00:06:41;;;;;;;110.93;31.30;;;8.30;99.90;;;;;;5092361;28;20052;-84
2024/01/26 00:09:16;;;;;;;110.97;30.15;;;8.30;99.90;;;;;;5092423;28;20052;-85
2024/01/26 00:11:42;;;;;;;103.57;28.48;;;8.20;99.90;;;;;;5092461;28;20512;-82
2024/01/26 00:14:09;;;;;;;95.32;27.13;;;8.20;99.90;;;;;;5074343;28;20403;-81
2024/01/26 00:16:36;;;;;;;96.80;27.55;;;8.20;99.90;;;;;;5074054;28;20044;-84
2024/01/26 00:19:03;;;;;;;86.95;26.23;;;8.30;99.90;;;;;;5092323;28;20430;-84
2024/01/26 00:21:29;;;;;;;95.72;27.35;;;8.30;99.90;;;;;;5092090;28;20074;-85
2024/01/26 00:23:55;;;;;;;73.85;24.15;;;8.30;99.90;;;;;;5073843;28;20504;-78
2024/01/26 00:26:21;;;;;;;78.85;26.35;;;8.30;99.90;;;;;;5092396;28;20073;-81
2024/01/26 00:28:46;;;;;;;77.80;26.73;;;8.30;99.90;;;;;;5092044;28;20526;-81
2024/01/26 00:31:19;;;;;;;85.13;25.67;;;8.30;99.90;;;;;;5092262;28;20037;-77
2024/01/26 00:33:45;;;;;;;74.82;26.10;;;8.30;99.90;;;;;;5073847;28;20059;-84
2024/01/26 00:36:12;;;;;;;85.10;26.52;;;8.30;99.90;;;;;;5092431;28;20067;-86
2024/01/26 00:38:39;;;;;;;79.47;25.63;;;8.40;99.90;;;;;;5092852;28;20055;-84
2024/01/26 00:41:06;;;;;;;79.10;26.55;;;8.40;99.90;;;;;;5091931;28;20051;-79
2024/01/26 00:43:31;;;;;;;79.00;27.00;;;8.30;99.90;;;;;;5073501;28;20060;-84
2024/01/26 00:45:57;;;;;;;74.63;26.20;;;8.40;99.90;;;;;;5091861;28;20047;-81
2024/01/26 00:48:23;;;;;;;69.60;25.90;;;8.40;99.90;;;;;;5092130;28;20133;-84
2024/01/26 00:50:54;;;;;;;68.68;25.35;;;8.40;99.90;;;;;;5073619;28;20094;-79
2024/01/26 00:53:20;;;;;;;61.33;23.50;;;8.30;99.90;;;;;;5092378;28;20044;-84
2024/01/26 00:55:46;;;;;;;69.03;24.38;;;8.40;99.90;;;;;;5091975;28;20468;-80
2024/01/26 00:58:12;;;;;;;62.63;22.75;;;8.40;99.90;;;;;;5091755;28;20119;-86
2024/01/26 01:00:38;;;;;;;61.08;23.70;;;8.40;99.90;;;;;;5092527;28;20268;-81
2024/01/26 01:03:04;;;;;;;54.40;21.92;;;8.40;99.90;;;;;;5057049;28;20048;-85
2024/01/26 01:05:30;;;;;;;53.03;21.65;;;8.50;99.90;;;;;;5073767;28;20419;-83
2024/01/26 01:07:56;;;;;;;55.53;21.05;;;8.50;99.90;;;;;;5092542;28;20090;-79
2024/01/26 01:10:22;;;;;;;49.05;21.38;;;8.50;99.90;;;;;;5073893;28;20048;-75
2024/01/26 01:12:49;;;;;;;45.42;20.27;;;8.50;99.90;;;;;;5091946;28;20044;-83
2024/01/26 01:15:15;;;;;;;44.53;17.80;;;8.50;99.90;;;;;;5092109;28;20048;-80
2024/01/26 01:17:46;;;;;;;52.20;19.38;;;8.60;99.90;;;;;;5093827;28;20044;-79
2024/01/26 01:20:13;;;;;;;47.50;19.48;;;8.60;99.90;;;;;;5079960;28;20665;-74
2024/01/26 01:22:44;;;;;;;43.30;18.17;;;8.50;99.90;;;;;;5083301;28;20399;-76
2024/01/26 01:25:13;;;;;;;46.42;19.25;;;8.60;99.90;;;;;;5085286;28;20044;-76
2024/01/26 01:27:39;;;;;;;36.92;16.48;;;8.60;99.90;;;;;;5082685;28;20115;-77
2024/01/26 01:30:06;;;;;;;41.10;16.65;;;8.60;99.90;;;;;;5101632;28;20519;-77
2024/01/26 01:32:33;;;;;;;39.80;16.95;;;8.60;99.90;;;;;;5097121;28;20500;-83
2024/01/26 01:34:58;;;;;;;37.25;17.10;;;8.60;99.90;;;;;;5074388;28;20059;-78
2024/01/26 01:37:24;;;;;;;46.42;17.15;;;8.60;99.90;;;;;;5073141;28;20052;-76
2024/01/26 01:39:50;;;;;;;33.70;14.73;;;8.60;99.90;;;;;;5091505;28;20389;-85
2024/01/26 01:42:16;;;;;;;33.15;15.38;;;8.70;99.90;;;;;;5091461;28;20082;-82
2024/01/26 01:44:45;;;;;;;31.13;14.32;;;8.70;99.90;;;;;;5091172;28;20060;-77
2024/01/26 01:47:12;;;;;;;30.92;13.10;;;8.70;99.90;;;;;;5090863;28;20503;-84
2024/01/26 01:49:39;;;;;;;25.00;12.30;;;8.70;99.90;;;;;;5091390;28;20052;-81
2024/01/26 01:52:08;;;;;;;30.27;13.50;;;8.70;99.90;;;;;;5090981;28;20369;-80
2024/01/26 01:54:34;;;;;;;26.33;12.57;;;8.70;99.90;;;;;;5091428;28;20051;-83
2024/01/26 01:57:03;;;;;;;26.10;13.32;;;8.70;99.90;;;;;;5091051;28;20385;-81
2024/01/26 01:59:29;;;;;;;27.70;13.07;;;8.70;99.90;;;;;;5090943;28;20052;-79
2024/01/26 02:01:55;;;;;;;28.13;13.25;;;8.70;99.90;;;;;;5072567;28;20067;-79
2024/01/26 02:04:21;;;;;;;26.50;12.57;;;8.70;99.90;;;;;;5072862;28;20389;-82
2024/01/26 02:06:59;;;;;;;26.33;13.45;;;8.70;99.90;;;;;;5072948;28;20144;-77
2024/01/26 02:09:26;;;;;;;27.65;13.13;;;8.70;99.90;;;;;;5072620;28;20074;-80
2024/01/26 02:11:52;;;;;;;22.83;11.80;;;8.70;99.90;;;;;;5091986;28;20107;-74
2024/01/26 02:14:18;;;;;;;22.23;11.73;;;8.70;99.90;;;;;;5094865;28;20084;-82
2024/01/26 02:17:01;;;;;;;25.40;12.38;;;8.70;99.90;;;;;;5094726;28;20131;-81
2024/01/26 02:19:28;;;;;;;25.00;12.60;;;8.70;99.90;;;;;;5094525;28;20121;-77
2024/01/26 02:21:54;;;;;;;20.30;11.48;;;8.70;99.90;;;;;;5095006;28;20048;-80
2024/01/26 02:24:20;;;;;;;24.77;11.77;;;8.70;99.90;;;;;;5094635;28;20055;-85
2024/01/26 02:26:46;;;;;;;22.50;10.88;;;8.80;99.90;;;;;;5094519;28;20044;-80
2024/01/26 02:29:12;;;;;;;24.90;11.85;;;8.80;99.90;;;;;;5094780;28;20055;-77
2024/01/26 02:31:38;;;;;;;25.35;12.20;;;8.80;99.90;;;;;;5094796;28;20048;-77
2024/01/26 02:34:04;;;;;;;25.77;13.98;;;8.80;99.90;;;;;;5094464;28;20070;-78
2024/01/26 02:36:32;;;;;;;24.98;12.63;;;8.80;99.90;;;;;;5094788;28;20472;-74
2024/01/26 02:38:57;;;;;;;22.27;11.75;;;8.80;99.90;;;;;;5094225;28;20130;-79
2024/01/26 02:41:23;;;;;;;22.85;12.63;;;8.80;99.90;;;;;;5059880;28;20148;-81
2024/01/26 02:43:49;;;;;;;34.28;15.02;;;8.90;99.90;;;;;;5094419;28;20468;-77
2024/01/26 02:46:15;;;;;;;27.80;15.07;;;8.80;99.90;;;;;;5094083;28;20395;-83
2024/01/26 02:48:41;;;;;;;32.42;15.07;;;8.90;99.90;;;;;;5075936;28;20475;-78
2024/01/26 02:51:06;;;;;;;24.15;12.23;;;8.90;99.90;;;;;;5075757;28;20052;-82
2024/01/26 02:53:33;;;;;;;29.55;15.13;;;8.90;99.90;;;;;;5094263;28;20087;-77
2024/01/26 02:55:58;;;;;;;31.23;15.15;;;8.90;99.90;;;;;;5095935;28;20147;-83
2024/01/26 02:58:24;;;;;;;33.67;15.65;;;8.90;99.90;;;;;;5093676;28;20472;-75
2024/01/26 03:00:50;;;;;;;30.90;15.10;;;9.00;99.90;;;;;;5094299;28;20395;-76
2024/01/26 03:03:15;;;;;;;31.58;16.40;;;9.00;99.90;;;;;;5076041;28;20055;-82
2024/01/26 03:05:41;;;;;;;34.00;16.45;;;9.00;99.90;;;;;;5078099;28;20115;-75
2024/01/26 03:08:07;;;;;;;35.40;18.80;;;9.00;99.90;;;;;;5081222;28;20044;-74
2024/01/26 03:10:33;;;;;;;36.33;16.35;;;9.10;99.90;;;;;;5098987;28;20399;-75
2024/01/26 03:12:59;;;;;;;32.55;16.48;;;9.10;99.90;;;;;;5098903;28;20048;-75
2024/01/26 03:15:24;;;;;;;32.03;16.95;;;9.10;99.90;;;;;;5099811;28;20054;-79
2024/01/26 03:17:50;;;;;;;35.90;17.45;;;9.10;99.90;;;;;;5078434;28;20064;-78
2024/01/26 03:20:17;;;;;;;34.47;17.10;;;9.20;99.90;;;;;;5094551;28;20131;-79
2024/01/26 03:22:43;;;;;;;29.75;16.08;;;9.20;99.90;;;;;;5094489;28;20510;-84
2024/01/26 03:25:09;;;;;;;31.35;15.90;;;9.20;99.90;;;;;;5094478;28;20051;-78
2024/01/26 03:27:35;;;;;;;34.50;16.40;;;9.20;99.90;;;;;;5076044;28;20068;-84
2024/01/26 03:30:02;;;;;;;33.65;16.42;;;9.20;99.90;;;;;;5059367;28;20081;-85
2024/01/26 03:32:27;;;;;;;34.35;17.08;;;9.30;99.90;;;;;;5076334;28;20044;-79
2024/01/26 03:34:53;;;;;;;35.33;16.52;;;9.30;99.90;;;;;;5075416;28;20110;-83
2024/01/26 03:37:19;;;;;;;41.63;18.05;;;9.30;99.90;;;;;;5094106;28;20052;-80
2024/01/26 03:39:45;;;;;;;34.13;18.02;;;9.30;99.90;;;;;;5093026;28;20090;-75
2024/01/26 03:42:11;;;;;;;41.22;18.50;;;9.30;99.90;;;;;;5092955;28;20105;-83
2024/01/26 03:44:38;;;;;;;40.28;17.48;;;9.30;99.90;;;;;;5075282;28;20044;-79
2024/01/26 03:47:04;;;;;;;44.78;18.58;;;9.30;99.90;;;;;;5092969;28;20488;-76
2024/01/26 03:49:30;;;;;;;38.97;18.65;;;9.30;99.90;;;;;;5092827;28;20087;-78
2024/01/26 03:51:56;;;;;;;37.47;18.23;;;9.30;99.90;;;;;;5075117;28;20099;-75
2024/01/26 03:54:21;;;;;;;46.30;19.65;;;9.40;99.90;;;;;;5092496;28;20519;-77
2024/01/26 03:56:47;;;;;;;40.38;18.98;;;9.30;99.90;;;;;;5074568;28;20051;-77
2024/01/26 03:59:13;;;;;;;42.53;18.88;;;9.40;99.90;;;;;;5092807;28;20426;-79
2024/01/26 04:01:39;;;;;;;44.80;19.15;;;9.40;99.90;;;;;;5092383;28;20052;-76
2024/01/26 04:04:05;;;;;;;47.38;20.25;;;9.50;99.90;;;;;;5074057;28;20059;-75
2024/01/26 04:06:31;;;;;;;47.17;20.08;;;9.40;99.90;;;;;;5092746;28;20051;-75
2024/01/26 04:08:59;;;;;;;38.97;18.25;;;9.50;99.90;;;;;;5092526;28;20361;-77
2024/01/26 04:11:25;;;;;;;46.45;20.80;;;9.50;99.90;;;;;;5092856;28;20129;-83
2024/01/26 04:13:51;;;;;;;51.15;21.40;;;9.60;99.90;;;;;;5074917;28;20407;-77
2024/01/26 04:16:16;;;;;;;52.50;20.45;;;9.60;99.90;;;;;;5074384;28;20040;-74
2024/01/26 04:18:43;;;;;;;50.78;21.70;;;9.50;99.90;;;;;;5057019;28;20047;-75
2024/01/26 04:21:10;;;;;;;48.90;22.58;;;9.60;99.90;;;;;;5073957;28;20091;-77
2024/01/26 04:23:35;;;;;;;53.70;23.33;;;9.60;99.90;;;;;;5092127;28;20055;-78
2024/01/26 04:26:01;;;;;;;43.72;20.73;;;9.60;99.90;;;;;;5073935;28;20056;-77
2024/01/26 04:28:27;;;;;;;60.15;22.83;;;9.60;99.90;;;;;;5074055;28;20072;-80
2024/01/26 04:30:53;;;;;;;48.90;20.20;;;9.70;99.90;;;;;;5092034;28;20407;-74
2024/01/26 04:33:19;;;;;;;55.45;24.50;;;9.70;99.90;;;;;;5091877;28;20126;-82
2024/01/26 04:35:44;;;;;;;44.25;21.80;;;9.70;99.90;;;;;;5091754;28;20062;-76
2024/01/26 04:38:10;;;;;;;47.03;21.33;;;9.70;99.90;;;;;;5091953;28;20467;-75
2024/01/26 04:40:38;;;;;;;47.05;21.42;;;9.70;99.90;;;;;;5091984;28;20048;-76
2024/01/26 04:43:05;;;;;;;43.40;22.77;;;9.80;99.90;;;;;;5091932;28;20056;-80
2024/01/26 04:45:31;;;;;;;44.50;20.27;;;9.80;99.90;;;;;;5092258;28;20143;-76
2024/01/26 04:47:57;;;;;;;45.75;21.08;;;9.80;99.90;;;;;;5091667;28;20127;-85
2024/01/26 04:50:23;;;;;;;43.47;21.55;;;9.90;99.90;;;;;;5073897;28;20131;-86
2024/01/26 04:52:52;;;;;;;44.28;21.25;;;9.80;99.90;;;;;;5092020;28;20047;-82
2024/01/26 04:55:31;;;;;;;48.22;22.13;;;9.90;99.90;;;;;;5091753;28;20463;-84
2024/01/26 04:57:56;;;;;;;48.13;21.77;;;9.80;99.90;;;;;;5073541;28;20047;-78
2024/01/26 05:00:23;;;;;;;44.33;21.92;;;9.90;99.90;;;;;;5073201;28;20059;-75
2024/01/26 05:02:49;;;;;;;46.85;21.63;;;9.90;99.90;;;;;;5069398;28;20084;-85
2024/01/26 05:05:15;;;;;;;43.45;22.23;;;9.90;99.90;;;;;;5069565;28;20102;-76
2024/01/26 05:07:41;;;;;;;45.67;21.88;;;9.90;99.90;;;;;;5069093;28;20045;-84
2024/01/26 05:10:07;;;;;;;41.08;21.80;;;9.90;99.90;;;;;;5070358;28;20045;-74
2024/01/26 05:12:33;;;;;;;41.20;20.75;;;9.90;99.90;;;;;;5070651;28;20050;-79
2024/01/26 05:14:59;;;;;;;45.95;21.35;;;9.90;99.90;;;;;;5070310;28;20389;-79
2024/01/26 05:17:25;;;;;;;42.92;19.70;;;9.90;99.90;;;;;;5070382;28;20123;-81
2024/01/26 05:19:51;;;;;;;49.50;22.45;;;9.90;99.90;;;;;;5069446;28;20135;-80
2024/01/26 05:22:18;;;;;;;42.80;21.45;;;9.90;99.90;;;;;;5070724;28;20500;-78
2024/01/26 05:24:45;;;;;;;40.70;19.95;;;9.90;99.90;;;;;;5070453;28;20053;-82
2024/01/26 05:27:11;;;;;;;37.78;19.08;;;9.90;99.90;;;;;;5070426;28;20045;-78
2024/01/26 05:29:37;;;;;;;39.55;19.98;;;9.90;99.90;;;;;;5052049;28;20082;-79
2024/01/26 05:32:03;;;;;;;35.00;18.35;;;10.00;99.90;;;;;;5069959;28;20048;-80
2024/01/26 05:34:29;;;;;;;40.58;20.98;;;10.00;99.90;;;;;;5051870;28;20552;-80
2024/01/26 05:36:54;;;;;;;43.60;21.02;;;10.00;99.90;;;;;;5069783;28;20052;-76
2024/01/26 05:39:20;;;;;;;40.17;20.10;;;10.00;99.90;;;;;;5070190;28;20488;-83
2024/01/26 05:41:46;;;;;;;48.03;21.55;;;10.00;99.90;;;;;;5070249;28;20053;-79
2024/01/26 05:44:12;;;;;;;37.72;21.20;;;10.10;99.90;;;;;;5070656;28;20055;-74
2024/01/26 05:46:38;;;;;;;38.13;20.73;;;10.10;99.90;;;;;;5071166;28;20491;-80
2024/01/26 05:49:04;;;;;;;46.08;21.60;;;10.10;99.90;;;;;;5073481;28;20056;-77
2024/01/26 05:51:30;;;;;;;40.00;21.95;;;10.10;99.90;;;;;;5055423;28;20604;-81
2024/01/26 05:53:55;;;;;;;37.13;19.33;;;10.10;99.90;;;;;;5071937;28;20056;-80
2024/01/26 05:56:21;;;;;;;38.35;18.70;;;10.10;99.90;;;;;;5071903;28;20127;-83
2024/01/26 05:58:47;;;;;;;34.05;17.42;;;10.10;99.90;;;;;;5072225;28;20464;-77
2024/01/26 06:01:13;;;;;;;27.77;15.40;;;10.10;99.90;;;;;;5073651;28;20048;-77
2024/01/26 06:03:39;;;;;;;26.77;15.07;;;10.10;99.90;;;;;;5042342;28;1320127;-77
2024/01/26 06:06:06;;;;;;;29.35;15.02;;;10.10;99.90;;;;;;5094982;28;20467;-80
2024/01/26 06:08:31;;;;;;;28.85;14.80;;;10.10;99.90;;;;;;5094774;28;20083;-76
2024/01/26 06:10:57;;;;;;;26.77;15.00;;;10.10;99.90;;;;;;5094983;28;20079;-81
2024/01/26 06:13:23;;;;;;;28.58;15.95;;;10.10;99.90;;;;;;5094808;28;20040;-83
2024/01/26 06:15:52;;;;;;;32.63;15.68;;;10.10;99.90;;;;;;5094828;28;20063;-78
2024/01/26 06:18:18;;;;;;;31.95;15.85;;;10.10;99.90;;;;;;5094549;28;20036;-76
2024/01/26 06:20:43;;;;;;;28.50;14.98;;;10.10;99.90;;;;;;5059776;28;20039;-81
2024/01/26 06:23:09;;;;;;;30.75;15.95;;;10.10;99.90;;;;;;5094664;28;20072;-78
2024/01/26 06:25:35;;;;;;;35.88;18.42;;;10.10;99.90;;;;;;5094117;28;20499;-79
2024/01/26 06:28:00;;;;;;;33.53;15.18;;;10.10;99.90;;;;;;5076097;28;20052;-79
2024/01/26 06:30:26;;;;;;;27.52;14.10;;;10.10;99.90;;;;;;5094472;28;20766;-75
2024/01/26 06:32:52;;;;;;;27.13;15.15;;;10.10;99.90;;;;;;5076310;28;20550;-77
2024/01/26 06:35:18;;;;;;;26.38;13.10;;;10.20;99.90;;;;;;5094308;28;20047;-79
2024/01/26 06:37:44;;;;;;;22.88;12.25;;;10.10;99.90;;;;;;5094569;28;20480;-80
2024/01/26 06:40:11;;;;;;;23.38;13.02;;;10.20;99.90;;;;;;5075686;28;20503;-80
2024/01/26 06:42:40;;;;;;;21.90;12.05;;;10.20;99.90;;;;;;5093735;28;20501;-81
2024/01/26 06:45:10;;;;;;;21.63;12.00;;;10.20;99.90;;;;;;5094227;28;20044;-80
2024/01/26 06:47:36;;;;;;;23.05;11.60;;;10.30;99.90;;;;;;5075621;28;20103;-75
2024/01/26 06:50:03;;;;;;;23.20;11.40;;;10.20;99.90;;;;;;5093917;28;20109;-78
2024/01/26 06:52:29;;;;;;;20.27;9.95;;;10.20;99.90;;;;;;5094237;28;20055;-82
2024/01/26 06:54:54;;;;;;;15.00;8.70;;;10.20;99.90;;;;;;5094087;28;20044;-80
2024/01/26 06:57:20;;;;;;;16.60;9.30;;;10.30;99.90;;;;;;5093238;28;20047;-76
2024/01/26 06:59:46;;;;;;;22.60;10.60;;;10.30;99.90;;;;;;5075946;28;20060;-79
2024/01/26 07:02:12;;;;;;;23.73;11.30;;;10.30;99.90;;;;;;5093310;28;20060;-77
2024/01/26 07:04:37;;;;;;;18.98;10.63;;;10.30;99.90;;;;;;5075598;28;20044;-81
2024/01/26 07:07:03;;;;;;;17.58;10.63;;;10.30;99.90;;;;;;5094088;28;20060;-80
2024/01/26 07:09:29;;;;;;;20.27;11.00;;;10.30;99.90;;;;;;5093975;28;20127;-80
2024/01/26 07:11:55;;;;;;;22.48;10.88;;;10.30;99.90;;;;;;5093919;28;20400;-77
2024/01/26 07:14:20;;;;;;;19.23;10.75;;;10.30;99.90;;;;;;5075912;28;20582;-83
2024/01/26 07:16:46;;;;;;;24.33;12.43;;;10.20;99.90;;;;;;5093542;28;20058;-79
2024/01/26 07:19:12;;;;;;;18.85;10.30;;;10.20;99.90;;;;;;5093503;28;20095;-79
2024/01/26 07:21:38;;;;;;;20.48;10.90;;;10.20;99.90;;;;;;5093690;28;20481;-80
2024/01/26 07:24:04;;;;;;;23.77;11.55;;;10.20;99.90;;;;;;5075189;28;20086;-81
2024/01/26 07:26:29;;;;;;;21.33;12.48;;;10.20;99.90;;;;;;5075084;28;20492;-79
2024/01/26 07:28:55;;;;;;;20.73;12.00;;;10.20;99.90;;;;;;5093462;28;20102;-77
2024/01/26 07:31:21;;;;;;;23.45;12.65;;;10.20;99.90;;;;;;5093081;28;20407;-82
2024/01/26 07:33:46;;;;;;;28.90;14.90;;;10.30;99.90;;;;;;5093558;28;20056;-82
2024/01/26 07:36:12;;;;;;;26.90;14.45;;;10.20;99.90;;;;;;5075281;28;20052;-78
2024/01/26 07:38:38;;;;;;;23.80;13.57;;;10.10;99.90;;;;;;5074758;28;20048;-80
2024/01/26 07:41:03;;;;;;;25.70;13.23;;;10.10;99.90;;;;;;5074881;28;20101;-82
2024/01/26 07:43:29;;;;;;;26.40;13.45;;;10.20;99.90;;;;;;5092779;28;20044;-81
2024/01/26 07:45:55;;;;;;;24.20;13.30;;;10.10;99.90;;;;;;5075364;28;20044;-81
2024/01/26 07:48:20;;;;;;;29.67;14.73;;;10.10;99.90;;;;;;5041538;28;20144;-81
2024/01/26 07:50:46;;;;;;;25.08;12.30;;;10.10;99.90;;;;;;5074634;28;20071;-75
2024/01/26 07:53:12;;;;;;;22.27;13.85;;;10.10;99.90;;;;;;5092902;28;20052;-80
2024/01/26 07:55:38;;;;;;;24.70;13.30;;;10.20;99.90;;;;;;5092565;28;20048;-83
2024/01/26 07:58:03;;;;;;;29.70;14.48;;;10.10;99.90;;;;;;5074258;28;20048;-76
2024/01/26 08:00:29;;;;;;;21.02;11.18;;;10.10;99.90;;;;;;5074231;28;20059;-82
2024/01/26 08:02:55;;;;;;;27.20;13.60;;;10.20;99.90;;;;;;5092467;28;20048;-78
2024/01/26 08:05:21;;;;;;;23.15;12.68;;;10.20;99.90;;;;;;5092387;28;20051;-78
2024/01/26 08:07:46;;;;;;;22.10;10.68;;;10.20;99.90;;;;;;5092605;28;20466;-76
2024/01/26 08:10:12;;;;;;;22.48;10.25;;;10.20;99.90;;;;;;5056824;28;20145;-82
2024/01/26 08:12:40;;;;;;;20.48;9.40;;;10.20;99.90;;;;;;5057935;28;20060;-80
2024/01/26 08:15:06;;;;;;;21.13;8.23;;;10.30;99.90;;;;;;5073881;28;20058;-84
2024/01/26 08:17:32;;;;;;;17.98;8.02;;;10.30;99.90;;;;;;5057342;28;20052;-85
2024/01/26 08:19:58;;;;;;;26.00;7.43;;;10.30;99.90;;;;;;5092670;28;20052;-85
2024/01/26 08:22:25;;;;;;;24.23;7.90;;;10.40;99.90;;;;;;5074109;28;20101;-76
2024/01/26 08:24:51;;;;;;;23.08;8.52;;;10.40;99.90;;;;;;5074822;28;20499;-85
2024/01/26 08:27:17;;;;;;;21.67;7.47;;;10.30;99.90;;;;;;5092488;28;20048;-76
2024/01/26 08:29:43;;;;;;;21.30;7.05;;;10.20;99.90;;;;;;5092468;28;20048;-78
2024/01/26 08:32:09;;;;;;;17.75;7.13;;;10.10;99.90;;;;;;5092272;28;20048;-84
2024/01/26 08:34:36;;;;;;;19.25;7.10;;;10.10;99.90;;;;;;5092151;28;20058;-79
2024/01/26 08:37:03;;;;;;;26.95;6.28;;;10.00;99.90;;;;;;5091773;28;20543;-82
2024/01/26 08:39:29;;;;;;;29.58;6.38;;;10.00;99.90;;;;;;5092087;28;20047;-82
2024/01/26 08:41:55;;;;;;;34.25;6.63;;;10.10;99.90;;;;;;5073749;28;20445;-82
2024/01/26 08:44:22;;;;;;;23.77;8.05;;;10.00;99.90;;;;;;5056891;28;20126;-84
2024/01/26 08:46:48;;;;;;;31.90;6.32;;;10.00;99.90;;;;;;5057126;28;20066;-83
2024/01/26 08:49:14;;;;;;;29.38;7.22;;;10.00;99.90;;;;;;5073365;28;20408;-81
2024/01/26 08:51:40;;;;;;;23.05;6.07;;;10.00;99.90;;;;;;5092134;28;20480;-78
2024/01/26 08:54:07;;;;;;;14.82;2.88;;;9.90;99.90;;;;;;5073371;28;20059;-80
2024/01/26 08:56:33;;;;;;;18.23;3.15;;;9.60;99.90;;;;;;5091547;28;20051;-76
2024/01/26 08:58:59;;;;;;;16.33;2.72;;;9.30;99.90;;;;;;5073781;28;20044;-77
2024/01/26 09:01:25;;;;;;;12.65;2.40;;;9.00;99.90;;;;;;5073781;28;20421;-80
2024/01/26 09:03:51;;;;;;;17.23;3.92;;;8.80;99.90;;;;;;5073050;28;20047;-78
2024/01/26 09:06:17;;;;;;;14.48;3.53;;;8.70;99.90;;;;;;5091628;28;20048;-74
2024/01/26 09:08:43;;;;;;;20.75;4.28;;;8.70;99.90;;;;;;5091343;28;20047;-75
2024/01/26 09:11:09;;;;;;;22.70;4.40;;;8.50;99.90;;;;;;5091338;28;20084;-76
2024/01/26 09:13:34;;;;;;;24.77;3.28;;;8.50;99.90;;;;;;5073424;28;20380;-83
2024/01/26 09:16:00;;;;;;;15.15;2.90;;;8.40;99.90;;;;;;5073212;28;20059;-76
2024/01/26 09:18:26;;;;;;;24.13;3.33;;;8.40;99.90;;;;;;5091143;28;20047;-75
2024/01/26 09:20:51;;;;;;;22.42;3.33;;;8.30;99.90;;;;;;5091563;28;20525;-76
2024/01/26 09:23:18;;;;;;;23.88;3.58;;;8.30;99.90;;;;;;5091139;28;20087;-75
2024/01/26 09:25:45;;;;;;;24.10;3.75;;;8.30;99.90;;;;;;5072921;28;20082;-80
2024/01/26 09:28:11;;;;;;;20.02;3.92;;;8.20;99.90;;;;;;5090938;28;20476;-79
2024/01/26 09:30:38;;;;;;;27.17;3.30;;;8.20;99.90;;;;;;5072710;28;20507;-83
2024/01/26 09:33:03;;;;;;;20.15;3.20;;;8.20;99.90;;;;;;5091182;28;20044;-81
2024/01/26 09:35:29;;;;;;;23.45;4.28;;;8.10;99.90;;;;;;5091088;28;20392;-79
2024/01/26 09:37:55;;;;;;;24.73;5.32;;;8.10;99.90;;;;;;5090885;28;20154;-80
2024/01/26 09:40:23;;;;;;;24.17;5.13;;;8.10;99.90;;;;;;5091672;28;20055;-84
2024/01/26 09:42:49;;;;;;;31.25;5.13;;;8.00;99.90;;;;;;5072968;28;20060;-78
2024/01/26 09:45:15;;;;;;;26.30;5.75;;;8.10;99.90;;;;;;5055823;28;20120;-80
2024/01/26 09:47:41;;;;;;;25.92;5.53;;;8.00;99.90;;;;;;5090923;28;20101;-84
2024/01/26 09:50:10;;;;;;;27.98;4.03;;;8.00;99.90;;;;;;5091156;28;20055;-81
2024/01/26 09:52:37;;;;;;;32.53;6.47;;;8.00;99.90;;;;;;5090727;28;20088;-79
2024/01/26 09:55:03;;;;;;;37.00;5.72;;;8.00;99.90;;;;;;5091012;28;20055;-79
2024/01/26 09:57:30;;;;;;;27.63;4.68;;;8.00;99.90;;;;;;5091130;28;20048;-78
2024/01/26 09:59:56;;;;;;;31.25;4.82;;;8.00;99.90;;;;;;5090888;28;20054;-81
2024/01/26 10:02:23;;;;;;;20.77;4.95;;;7.80;99.90;;;;;;5090623;28;20419;-80
2024/01/26 10:04:49;;;;;;;20.70;4.47;;;7.90;99.90;;;;;;5090844;28;20492;-81
2024/01/26 10:07:15;;;;;;;24.00;4.82;;;7.80;99.90;;;;;;5090768;28;20048;-76
2024/01/26 10:09:44;;;;;;;23.52;4.57;;;7.80;99.90;;;;;;5072652;28;20079;-81
2024/01/26 10:12:10;;;;;;;27.35;3.50;;;7.80;99.90;;;;;;5073082;28;20048;-84
2024/01/26 10:14:37;;;;;;;31.45;3.60;;;7.80;99.90;;;;;;5090988;28;20411;-75
2024/01/26 10:17:03;;;;;;;13.15;3.15;;;7.80;99.90;;;;;;5072352;28;20133;-73
2024/01/26 10:19:30;;;;;;;16.50;3.28;;;7.80;99.90;;;;;;5072393;28;20048;-79
2024/01/26 10:21:56;;;;;;;29.20;5.13;;;7.90;99.90;;;;;;5090682;28;20484;-79
2024/01/26 10:24:25;;;;;;;20.73;4.18;;;7.90;99.90;;;;;;5072772;28;20054;-83
2024/01/26 10:26:55;;;;;;;25.95;4.95;;;7.90;99.90;;;;;;5072537;28;20080;-77
2024/01/26 10:29:24;;;;;;;19.70;4.05;;;7.80;99.90;;;;;;5072428;28;20048;-75
2024/01/26 10:31:51;;;;;;;34.92;5.43;;;7.80;99.90;;;;;;5091334;28;20090;-77
2024/01/26 10:34:18;;;;;;;19.05;4.22;;;7.80;99.90;;;;;;5095435;28;20109;-76
2024/01/26 10:36:48;;;;;;;29.08;5.70;;;7.80;99.90;;;;;;5094495;28;20499;-77
2024/01/26 10:39:21;;;;;;;26.08;4.45;;;7.80;99.90;;;;;;5094968;28;20515;-74
2024/01/26 10:41:49;;;;;;;24.98;4.35;;;7.80;99.90;;;;;;5076726;28;20060;-76
2024/01/26 10:44:16;;;;;;;36.58;6.25;;;7.80;99.90;;;;;;5095057;28;20433;-79
2024/01/26 10:46:43;;;;;;;26.48;5.03;;;8.00;99.90;;;;;;5095058;28;20052;-76
2024/01/26 10:49:11;;;;;;;21.27;4.10;;;8.20;99.90;;;;;;5095270;28;20134;-82
2024/01/26 10:51:37;;;;;;;30.10;4.53;;;8.40;99.90;;;;;;5097272;28;20487;-77
2024/01/26 10:54:10;;;;;;;37.20;4.50;;;8.60;99.90;;;;;;5097297;28;20060;-82
2024/01/26 10:56:37;;;;;;;23.45;5.35;;;8.60;99.90;;;;;;5079714;28;20131;-79
2024/01/26 10:59:03;;;;;;;23.33;4.38;;;8.70;99.90;;;;;;5098048;28;20055;-78
2024/01/26 11:01:30;;;;;;;33.65;4.90;;;8.60;99.90;;;;;;5078565;28;20052;-80
2024/01/26 11:03:56;;;;;;;27.02;4.43;;;8.60;99.90;;;;;;5097067;28;20060;-80
2024/01/26 11:06:22;;;;;;;21.75;3.42;;;8.70;99.90;;;;;;5101245;28;20584;-78
2024/01/26 11:08:48;;;;;;;29.98;5.65;;;8.70;99.90;;;;;;5082158;28;20059;-79
2024/01/26 11:11:19;;;;;;;23.27;5.07;;;8.80;99.90;;;;;;5096840;28;20483;-81
2024/01/26 11:13:52;;;;;;;29.60;5.03;;;8.90;99.90;;;;;;5097819;28;20056;-74
2024/01/26 11:16:18;;;;;;;28.58;4.70;;;8.90;99.90;;;;;;5077799;28;20044;-78
2024/01/26 11:18:44;;;;;;;28.40;4.57;;;8.80;99.90;;;;;;5076149;28;20059;-81
2024/01/26 11:21:19;;;;;;;18.10;3.45;;;8.90;99.90;;;;;;5093813;28;20052;-80
2024/01/26 11:23:45;;;;;;;25.77;4.50;;;9.00;99.90;;;;;;5093666;28;20506;-77
2024/01/26 11:26:15;;;;;;;23.48;4.78;;;9.10;99.90;;;;;;5058829;28;20146;-74
2024/01/26 11:28:42;;;;;;;34.60;5.70;;;9.10;99.90;;;;;;5075168;28;20059;-75
2024/01/26 11:31:07;;;;;;;25.45;5.35;;;8.90;99.90;;;;;;5080027;28;20052;-76
2024/01/26 11:33:35;;;;;;;27.17;3.90;;;8.80;99.90;;;;;;5093767;28;20059;-78
2024/01/26 11:36:05;;;;;;;28.80;4.78;;;8.70;99.90;;;;;;5093132;28;20087;-77
2024/01/26 11:38:32;;;;;;;26.23;5.05;;;8.40;99.90;;;;;;5075103;28;20569;-78
2024/01/26 11:40:58;;;;;;;32.97;6.15;;;8.30;99.90;;;;;;5092979;28;20058;-75
2024/01/26 11:43:29;;;;;;;24.35;4.30;;;8.20;99.90;;;;;;5092752;28;20052;-75
2024/01/26 11:45:56;;;;;;;27.02;3.92;;;8.10;99.90;;;;;;5092490;28;20047;-78
2024/01/26 11:48:22;;;;;;;22.10;4.13;;;8.00;99.90;;;;;;5074822;28;20147;-79
2024/01/26 11:50:49;;;;;;;30.42;6.15;;;8.00;99.90;;;;;;5093310;28;20170;-76
2024/01/26 11:53:16;;;;;;;31.15;5.10;;;7.90;99.90;;;;;;5075126;28;20044;-75
2024/01/26 11:55:42;;;;;;;29.42;6.13;;;7.90;99.90;;;;;;5074705;28;20384;-78
2024/01/26 11:58:09;;;;;;;22.48;4.07;;;7.90;99.90;;;;;;5074510;28;20552;-83
2024/01/26 12:00:35;;;;;;;31.67;5.63;;;7.80;99.90;;;;;;5093047;28;20403;-77
2024/01/26 12:03:09;;;;;;;29.63;5.53;;;7.80;99.90;;;;;;5092396;28;20070;-75
2024/01/26 12:05:36;;;;;;;26.55;5.30;;;7.80;99.90;;;;;;5074398;28;20518;-77
2024/01/26 12:08:04;;;;;;;33.40;7.03;;;7.70;99.90;;;;;;5092664;28;20044;-74
2024/01/26 12:10:31;;;;;;;34.63;6.32;;;7.70;99.90;;;;;;5074097;28;20056;-81
2024/01/26 12:12:57;;;;;;;37.13;6.57;;;7.60;99.90;;;;;;5092362;28;20052;-82
2024/01/26 12:15:29;;;;;;;39.88;6.65;;;7.50;99.90;;;;;;5092255;28;20052;-77
2024/01/26 12:17:58;;;;;;;33.85;7.72;;;7.40;99.90;;;;;;5092240;28;20538;-81
2024/01/26 12:20:24;;;;;;;22.60;4.82;;;7.40;99.90;;;;;;5092389;28;20403;-80
2024/01/26 12:22:50;;;;;;;25.05;3.63;;;7.50;99.90;;;;;;5057255;28;20048;-77
2024/01/26 12:25:16;;;;;;;29.55;4.90;;;7.50;99.90;;;;;;5092725;28;20076;-77
2024/01/26 12:27:42;;;;;;;38.35;6.70;;;7.60;99.90;;;;;;5073900;28;20059;-82
2024/01/26 12:30:11;;;;;;;28.52;6.80;;;7.50;99.90;;;;;;5073860;28;20397;-84
2024/01/26 12:32:38;;;;;;;22.17;4.72;;;7.60;99.90;;;;;;5092342;28;20056;-81
2024/01/26 12:35:04;;;;;;;21.88;4.78;;;7.60;99.90;;;;;;5073856;28;20182;-82